Time;durP1;ratioP1;P1;durP2;ratioP2;P2;SDS_P1;SDS_P2;PMS_P1;PMS_P2;Temp;Humidity;BMP_temperature;BMP_pressure;BME280_temperature;BME280_humidity;BME280_pressure;Samples;Min_cycle;Max_cycle;Signal;HPM_P1;HPM_P2
2023/10/06 00:00:48;;;;;;;2.27;0.70;;;21.00;41.10;;;;;;4990062;28;20641;-72
2023/10/06 00:03:15;;;;;;;2.43;0.80;;;20.90;40.60;;;;;;4988454;28;20222;-71
2023/10/06 00:05:44;;;;;;;1.67;0.80;;;20.80;41.60;;;;;;4987551;28;20197;-70
2023/10/06 00:08:17;;;;;;;6.57;1.30;;;21.00;41.20;;;;;;4989280;28;20229;-71
2023/10/06 00:10:54;;;;;;;4.23;0.90;;;21.20;40.80;;;;;;4991421;28;20576;-70
2023/10/06 00:13:31;;;;;;;1.70;1.00;;;21.70;40.50;;;;;;4985147;28;20265;-71
2023/10/06 00:16:01;;;;;;;1.50;0.87;;;21.70;40.50;;;;;;4992585;28;20289;-72
2023/10/06 00:18:29;;;;;;;2.90;0.63;;;21.70;40.30;;;;;;4991823;28;20186;-71
2023/10/06 00:21:04;;;;;;;3.90;1.00;;;21.90;39.70;;;;;;4993156;28;20252;-71
2023/10/06 00:23:38;;;;;;;2.53;1.10;;;22.00;39.90;;;;;;4993374;28;20647;-70
2023/10/06 00:26:16;;;;;;;4.57;1.10;;;22.10;39.10;;;;;;5006802;28;20240;-72
2023/10/06 00:28:47;;;;;;;4.27;1.30;;;22.40;38.80;;;;;;5013691;28;20239;-70
2023/10/06 00:31:14;;;;;;;1.40;0.70;;;22.80;38.20;;;;;;5013996;28;20185;-71
2023/10/06 00:33:44;;;;;;;1.83;1.10;;;22.80;37.20;;;;;;5013120;28;20192;-73
2023/10/06 00:36:14;;;;;;;3.23;1.00;;;22.90;36.30;;;;;;5013599;28;20603;-72
2023/10/06 00:38:45;;;;;;;3.03;0.93;;;23.00;36.60;;;;;;5013767;28;20193;-68
2023/10/06 00:41:20;;;;;;;1.47;0.63;;;23.00;36.60;;;;;;5000168;28;20177;-70
2023/10/06 00:43:49;;;;;;;2.27;0.60;;;23.20;35.60;;;;;;5013609;28;20199;-70
2023/10/06 00:46:20;;;;;;;1.57;0.73;;;23.30;35.00;;;;;;5014480;28;20195;-71
2023/10/06 00:48:56;;;;;;;1.73;0.90;;;23.50;35.10;;;;;;5014263;28;20652;-70
2023/10/06 00:51:28;;;;;;;1.83;0.73;;;23.30;34.80;;;;;;5027864;28;20177;-72
2023/10/06 00:53:57;;;;;;;1.03;0.53;;;23.40;34.70;;;;;;5013894;28;20544;-72
2023/10/06 00:56:26;;;;;;;1.43;0.60;;;23.50;34.70;;;;;;5014059;28;20535;-70
2023/10/06 00:58:54;;;;;;;1.20;0.50;;;23.50;34.40;;;;;;5013868;28;20181;-71
2023/10/06 01:01:22;;;;;;;3.30;0.50;;;23.50;34.60;;;;;;5014551;28;20192;-69
2023/10/06 01:04:08;;;;;;;1.10;0.47;;;23.50;34.20;;;;;;5014382;28;20261;-72
2023/10/06 01:06:38;;;;;;;0.63;0.40;;;23.30;34.90;;;;;;5013625;28;20177;-72
2023/10/06 01:09:16;;;;;;;2.63;0.50;;;23.60;34.80;;;;;;5013795;28;20202;-72
2023/10/06 01:11:52;;;;;;;2.17;0.70;;;23.70;33.80;;;;;;5013634;28;20541;-73
2023/10/06 01:14:27;;;;;;;3.13;0.73;;;23.70;35.20;;;;;;5013372;28;20184;-72
2023/10/06 01:19:47;;;;;;;2.77;0.63;;;23.30;38.20;;;;;;5013725;28;20173;-71
2023/10/06 01:22:25;;;;;;;3.50;0.87;;;23.20;37.20;;;;;;5013995;28;20185;-70
2023/10/06 01:24:58;;;;;;;1.73;0.60;;;23.50;37.20;;;;;;5013725;28;20220;-71
2023/10/06 01:27:28;;;;;;;0.50;0.50;;;23.50;37.30;;;;;;5011972;28;20280;-71
2023/10/06 01:32:45;;;;;;;2.30;0.80;;;23.60;36.70;;;;;;5007233;28;20669;-70
2023/10/06 01:35:16;;;;;;;2.67;0.63;;;23.30;36.50;;;;;;5013666;28;20628;-72
2023/10/06 01:37:45;;;;;;;2.10;1.00;;;23.80;36.00;;;;;;5013318;28;20243;-71
2023/10/06 01:42:54;;;;;;;1.17;0.70;;;23.90;34.60;;;;;;5013605;28;20211;-71
2023/10/06 01:45:31;;;;;;;1.53;0.70;;;24.10;35.70;;;;;;5001018;28;20678;-69
2023/10/06 01:50:41;;;;;;;2.27;0.47;;;23.60;37.20;;;;;;5013443;28;20209;-72
2023/10/06 01:53:11;;;;;;;2.67;0.77;;;22.80;38.20;;;;;;5013486;28;20183;-70
2023/10/06 01:55:38;;;;;;;3.37;0.60;;;22.30;39.90;;;;;;5013179;28;20640;-70
2023/10/06 01:58:11;;;;;;;4.80;1.27;;;21.80;41.30;;;;;;5013441;28;20169;-70
2023/10/06 02:00:38;;;;;;;1.10;0.60;;;21.60;42.50;;;;;;5013510;28;20215;-71
2023/10/06 02:03:12;;;;;;;3.73;0.97;;;21.40;41.40;;;;;;5013172;28;20231;-69
2023/10/06 02:05:40;;;;;;;4.33;1.10;;;21.30;41.60;;;;;;5013116;28;20219;-72
2023/10/06 02:08:14;;;;;;;2.07;0.77;;;21.30;43.60;;;;;;5013159;28;20173;-71
2023/10/06 02:10:43;;;;;;;1.93;0.80;;;21.90;44.00;;;;;;5012845;28;20216;-70
2023/10/06 02:13:11;;;;;;;2.13;0.93;;;22.40;43.00;;;;;;5013315;28;20648;-71
2023/10/06 02:15:38;;;;;;;1.60;0.53;;;22.40;42.80;;;;;;5013182;28;20185;-71
2023/10/06 02:18:12;;;;;;;0.77;0.60;;;22.30;43.60;;;;;;5013060;28;20185;-71
2023/10/06 02:20:46;;;;;;;4.30;0.60;;;21.80;44.50;;;;;;5013078;28;20188;-71
2023/10/06 02:23:13;;;;;;;2.70;0.70;;;21.80;45.20;;;;;;5013130;28;20280;-71
2023/10/06 02:25:40;;;;;;;1.93;0.60;;;21.50;44.80;;;;;;5010473;28;20225;-71
2023/10/06 02:28:09;;;;;;;4.10;1.00;;;21.30;47.50;;;;;;5007678;28;20574;-71
2023/10/06 02:30:41;;;;;;;4.43;1.10;;;20.90;47.70;;;;;;5011942;28;20205;-71
2023/10/06 02:33:11;;;;;;;3.17;0.70;;;20.80;47.90;;;;;;5009228;28;20196;-72
2023/10/06 02:35:45;;;;;;;3.67;0.80;;;20.50;47.20;;;;;;5012736;28;20189;-72
2023/10/06 02:38:13;;;;;;;1.27;0.60;;;20.30;47.50;;;;;;5010201;28;20189;-70
2023/10/06 02:40:47;;;;;;;3.10;0.80;;;20.10;47.70;;;;;;5012848;28;20228;-76
2023/10/06 02:43:20;;;;;;;3.07;0.80;;;20.00;47.60;;;;;;5011673;28;20185;-73
2023/10/06 02:45:47;;;;;;;6.73;0.70;;;19.80;47.30;;;;;;5013128;28;20244;-73
2023/10/06 02:48:16;;;;;;;3.17;0.90;;;19.70;48.60;;;;;;5012826;28;20174;-74
2023/10/06 02:50:46;;;;;;;1.93;0.80;;;19.50;48.70;;;;;;5012709;28;20246;-72
2023/10/06 02:53:14;;;;;;;2.40;0.80;;;19.50;49.10;;;;;;5012993;28;20372;-73
2023/10/06 02:55:45;;;;;;;2.50;0.73;;;19.30;49.50;;;;;;5012500;28;20512;-72
2023/10/06 02:58:23;;;;;;;1.40;0.80;;;19.30;48.90;;;;;;5012877;28;20180;-71
2023/10/06 03:00:51;;;;;;;2.00;0.90;;;19.30;50.00;;;;;;5012871;28;20223;-71
2023/10/06 03:03:21;;;;;;;1.70;0.87;;;19.60;50.10;;;;;;5012295;28;20205;-72
2023/10/06 03:05:53;;;;;;;2.03;0.80;;;20.00;48.00;;;;;;5012514;28;20227;-72
2023/10/06 03:08:30;;;;;;;3.30;0.80;;;20.30;46.40;;;;;;5012652;28;20200;-71
2023/10/06 03:10:57;;;;;;;1.50;0.77;;;20.50;46.70;;;;;;5012874;28;20255;-73
2023/10/06 03:13:31;;;;;;;6.97;1.07;;;20.90;46.10;;;;;;5012105;28;20228;-71
2023/10/06 03:16:02;;;;;;;4.27;0.80;;;20.60;46.80;;;;;;5012627;28;20185;-71
2023/10/06 03:18:30;;;;;;;4.70;1.00;;;20.30;48.40;;;;;;5012270;28;20177;-72
2023/10/06 03:21:05;;;;;;;3.60;0.80;;;20.10;47.60;;;;;;5012714;28;20178;-72
2023/10/06 03:23:38;;;;;;;3.83;1.00;;;20.00;48.50;;;;;;5015251;28;20643;-72
2023/10/06 03:26:19;;;;;;;7.67;1.70;;;20.00;51.20;;;;;;5030988;28;20290;-72
2023/10/06 03:28:49;;;;;;;11.80;1.43;;;20.00;54.50;;;;;;5016280;28;20561;-68
2023/10/06 03:33:57;;;;;;;8.30;2.43;;;21.20;57.50;;;;;;5015714;28;20552;-70
2023/10/06 03:36:38;;;;;;;11.63;2.30;;;20.90;58.70;;;;;;5016226;28;20189;-73
2023/10/06 03:39:11;;;;;;;12.47;2.47;;;20.30;58.80;;;;;;5014432;28;20192;-71
2023/10/06 03:41:41;;;;;;;11.33;2.07;;;19.90;60.80;;;;;;5015750;28;20178;-68
2023/10/06 03:44:11;;;;;;;7.63;2.70;;;19.70;60.50;;;;;;5014455;28;20662;-71
2023/10/06 03:46:38;;;;;;;11.77;2.07;;;19.30;61.70;;;;;;5015553;28;20235;-68
2023/10/06 03:49:09;;;;;;;4.17;2.13;;;19.10;61.60;;;;;;5015518;28;20205;-71
2023/10/06 03:51:40;;;;;;;10.43;2.10;;;19.00;61.80;;;;;;5015312;28;20192;-72
2023/10/06 03:54:09;;;;;;;12.03;2.43;;;19.00;62.60;;;;;;5015630;28;20177;-70
2023/10/06 03:56:37;;;;;;;11.70;2.50;;;19.20;62.80;;;;;;5013387;28;20184;-71
2023/10/06 03:59:15;;;;;;;8.43;2.67;;;19.20;62.80;;;;;;5015726;28;20236;-72
2023/10/06 04:01:47;;;;;;;15.17;2.93;;;18.90;62.30;;;;;;5015442;28;20181;-71
2023/10/06 04:04:22;;;;;;;7.57;2.57;;;18.90;62.80;;;;;;5015045;28;20177;-73
2023/10/06 04:06:50;;;;;;;10.23;3.13;;;18.70;64.20;;;;;;5015451;28;20187;-73
2023/10/06 04:09:27;;;;;;;11.13;2.50;;;18.60;64.90;;;;;;5015012;28;20209;-72
2023/10/06 04:11:57;;;;;;;12.17;2.40;;;18.60;65.70;;;;;;5015035;28;20181;-70
2023/10/06 04:14:27;;;;;;;9.77;2.30;;;18.70;65.70;;;;;;5015369;28;20182;-70
2023/10/06 04:16:55;;;;;;;11.27;2.67;;;18.80;66.50;;;;;;5015243;28;20247;-71
2023/10/06 04:19:22;;;;;;;8.07;2.47;;;18.80;65.70;;;;;;5014890;28;20267;-71
2023/10/06 04:21:50;;;;;;;8.00;2.10;;;18.40;64.60;;;;;;5014806;28;20173;-70
2023/10/06 04:24:18;;;;;;;9.30;2.07;;;18.40;64.40;;;;;;5014594;28;20181;-72
2023/10/06 04:26:56;;;;;;;9.73;2.60;;;18.50;63.60;;;;;;5013030;28;20236;-72
2023/10/06 04:29:25;;;;;;;7.07;2.43;;;18.40;64.00;;;;;;5012478;28;20201;-72
2023/10/06 04:31:55;;;;;;;11.67;2.83;;;18.30;63.70;;;;;;5013250;28;20236;-71
2023/10/06 04:34:27;;;;;;;10.47;2.43;;;18.30;63.80;;;;;;5012786;28;20181;-70
2023/10/06 04:36:56;;;;;;;12.20;3.10;;;18.30;62.80;;;;;;5015157;28;20192;-71
2023/10/06 04:39:24;;;;;;;9.30;2.30;;;18.30;62.70;;;;;;5013136;28;20564;-71
2023/10/06 04:41:51;;;;;;;9.10;2.40;;;18.20;64.40;;;;;;5013254;28;20204;-69
2023/10/06 04:44:18;;;;;;;13.33;2.60;;;17.90;67.20;;;;;;5014692;28;20174;-70
2023/10/06 04:46:46;;;;;;;8.00;2.13;;;17.90;67.80;;;;;;5014667;28;20647;-68
2023/10/06 04:49:13;;;;;;;16.10;2.73;;;17.80;68.70;;;;;;5014316;28;20651;-69
2023/10/06 04:51:42;;;;;;;10.43;2.80;;;17.70;67.80;;;;;;4999083;28;20190;-71
2023/10/06 04:54:10;;;;;;;11.87;3.77;;;17.60;68.60;;;;;;5030115;28;20271;-70
2023/10/06 04:56:37;;;;;;;10.20;2.47;;;17.70;69.00;;;;;;5014531;28;20188;-70
2023/10/06 04:59:06;;;;;;;12.03;2.27;;;17.80;69.40;;;;;;5029808;28;20588;-69
2023/10/06 05:01:35;;;;;;;5.90;2.40;;;17.60;66.70;;;;;;5014097;28;20616;-72
2023/10/06 05:04:19;;;;;;;13.23;2.37;;;17.50;69.10;;;;;;5013139;28;20229;-71
2023/10/06 05:06:48;;;;;;;9.40;2.50;;;17.50;69.90;;;;;;5014363;28;20655;-70
2023/10/06 05:09:18;;;;;;;11.50;2.77;;;17.50;71.90;;;;;;5015017;28;20219;-74
2023/10/06 05:11:46;;;;;;;8.03;2.40;;;17.50;72.40;;;;;;5014128;28;20200;-73
2023/10/06 05:14:16;;;;;;;11.90;2.87;;;17.60;73.30;;;;;;5014280;28;20177;-74
2023/10/06 05:16:44;;;;;;;12.30;2.90;;;17.30;73.60;;;;;;5029231;28;20654;-70
2023/10/06 05:19:12;;;;;;;9.33;3.03;;;17.20;75.00;;;;;;5013406;28;20180;-75
2023/10/06 05:21:39;;;;;;;12.13;2.93;;;17.10;75.40;;;;;;5014186;28;20239;-72
2023/10/06 05:24:08;;;;;;;6.13;2.33;;;17.10;76.20;;;;;;5012387;28;20181;-70
2023/10/06 05:26:36;;;;;;;9.47;3.07;;;16.80;73.70;;;;;;5013932;28;20236;-71
2023/10/06 05:29:05;;;;;;;7.93;2.47;;;17.00;74.50;;;;;;5012896;28;20209;-72
2023/10/06 05:31:33;;;;;;;13.27;2.77;;;16.80;73.30;;;;;;5012464;28;20731;-71
2023/10/06 05:34:01;;;;;;;8.03;2.70;;;16.80;72.50;;;;;;5011894;28;20243;-72
2023/10/06 05:36:28;;;;;;;9.93;2.50;;;16.90;71.50;;;;;;5013468;28;20177;-72
2023/10/06 05:38:59;;;;;;;8.50;3.03;;;17.00;71.80;;;;;;5013710;28;20720;-71
2023/10/06 05:41:33;;;;;;;9.80;2.50;;;17.00;71.00;;;;;;5013671;28;20343;-71
2023/10/06 05:44:02;;;;;;;9.77;2.40;;;17.10;70.70;;;;;;5011792;28;20265;-72
2023/10/06 05:46:30;;;;;;;7.13;2.20;;;17.10;69.30;;;;;;5028117;28;20265;-70
2023/10/06 05:49:00;;;;;;;9.17;2.10;;;17.00;68.10;;;;;;5028477;28;20221;-71
2023/10/06 05:51:28;;;;;;;11.23;2.33;;;17.10;68.40;;;;;;5023358;28;20229;-69
2023/10/06 05:53:59;;;;;;;6.23;2.03;;;17.00;67.50;;;;;;5008240;28;20189;-70
2023/10/06 05:56:29;;;;;;;6.97;1.90;;;17.00;66.20;;;;;;5008898;28;20185;-70
2023/10/06 05:58:56;;;;;;;3.93;1.70;;;17.00;66.80;;;;;;5008762;28;20192;-71
2023/10/06 06:01:28;;;;;;;9.13;2.10;;;17.00;64.50;;;;;;5009759;28;20214;-70
2023/10/06 06:03:57;;;;;;;14.37;2.53;;;17.00;65.50;;;;;;5011025;28;20247;-71
2023/10/06 06:06:26;;;;;;;9.37;2.67;;;17.10;66.60;;;;;;5008721;28;20281;-69
2023/10/06 06:08:55;;;;;;;12.00;2.47;;;17.00;66.30;;;;;;5012204;28;20548;-72
2023/10/06 06:11:23;;;;;;;11.47;2.10;;;17.00;67.40;;;;;;5009779;28;20215;-71
2023/10/06 06:13:51;;;;;;;13.10;2.43;;;16.80;68.30;;;;;;5011253;28;20181;-73
2023/10/06 06:16:18;;;;;;;7.93;1.83;;;16.60;70.20;;;;;;5012073;28;20255;-71
2023/10/06 06:18:46;;;;;;;9.30;2.17;;;16.50;71.90;;;;;;5010230;28;20190;-75
2023/10/06 06:21:16;;;;;;;9.97;2.37;;;16.40;72.50;;;;;;5013004;28;20589;-73
2023/10/06 06:23:46;;;;;;;15.57;2.80;;;16.40;72.00;;;;;;5009093;28;20231;-69
2023/10/06 06:26:16;;;;;;;16.83;3.00;;;16.40;72.10;;;;;;5009707;28;20694;-73
2023/10/06 06:28:44;;;;;;;9.83;2.57;;;16.60;71.90;;;;;;5009783;28;20229;-71
2023/10/06 06:31:20;;;;;;;23.27;3.20;;;16.70;71.30;;;;;;5011471;28;20227;-74
2023/10/06 06:33:48;;;;;;;17.50;2.30;;;16.80;71.00;;;;;;5007869;28;20184;-70
2023/10/06 06:36:18;;;;;;;11.27;2.77;;;16.80;70.40;;;;;;5003677;28;20221;-71
2023/10/06 06:38:48;;;;;;;13.13;2.93;;;16.80;68.50;;;;;;5007840;28;20181;-71
2023/10/06 06:41:15;;;;;;;11.67;2.57;;;16.80;68.10;;;;;;5007270;28;20255;-71
2023/10/06 06:43:45;;;;;;;11.30;2.43;;;16.80;68.80;;;;;;5008406;28;20573;-71
2023/10/06 06:46:16;;;;;;;15.03;2.70;;;16.80;68.40;;;;;;5007257;28;20195;-72
2023/10/06 06:48:44;;;;;;;13.77;2.97;;;16.80;68.30;;;;;;5009954;28;20621;-72
2023/10/06 06:51:11;;;;;;;15.77;2.50;;;16.90;68.10;;;;;;5009772;28;20189;-71
2023/10/06 06:53:42;;;;;;;10.37;2.47;;;16.90;67.80;;;;;;5008732;28;20192;-70
2023/10/06 06:56:11;;;;;;;14.13;3.20;;;16.80;67.70;;;;;;5008446;28;20191;-71
2023/10/06 06:58:38;;;;;;;11.90;2.47;;;16.80;66.90;;;;;;5009928;28;20192;-74
2023/10/06 07:01:14;;;;;;;18.97;3.37;;;16.80;66.40;;;;;;5013733;28;20180;-73
2023/10/06 07:03:41;;;;;;;10.70;2.80;;;16.90;66.30;;;;;;5012842;28;20281;-71
2023/10/06 07:06:16;;;;;;;11.30;3.03;;;16.90;66.50;;;;;;5015068;28;20184;-71
2023/10/06 07:08:47;;;;;;;11.87;3.00;;;17.00;66.70;;;;;;5010607;28;20705;-74
2023/10/06 07:11:15;;;;;;;12.53;2.93;;;17.00;66.40;;;;;;5009880;28;20279;-72
2023/10/06 07:13:45;;;;;;;10.50;2.90;;;17.00;66.80;;;;;;5012878;28;20235;-73
2023/10/06 07:16:14;;;;;;;13.63;2.50;;;17.00;67.50;;;;;;5011071;28;20196;-73
2023/10/06 07:18:42;;;;;;;14.43;3.10;;;16.90;68.20;;;;;;5011614;28;20235;-72
2023/10/06 07:21:10;;;;;;;15.27;3.07;;;16.90;68.70;;;;;;5009967;28;20188;-69
2023/10/06 07:23:38;;;;;;;15.37;3.47;;;16.80;67.80;;;;;;5012796;28;20261;-74
2023/10/06 07:26:12;;;;;;;19.80;3.60;;;16.80;68.00;;;;;;5011801;28;20235;-72
2023/10/06 07:28:42;;;;;;;19.93;3.57;;;16.80;68.30;;;;;;5009660;28;20215;-71
2023/10/06 07:31:16;;;;;;;22.30;3.60;;;16.80;68.30;;;;;;5011230;28;20335;-74
2023/10/06 07:33:52;;;;;;;13.53;2.90;;;16.80;68.10;;;;;;5012394;28;20191;-71
2023/10/06 07:36:20;;;;;;;14.37;2.87;;;16.80;67.70;;;;;;5011521;28;20239;-71
2023/10/06 07:38:48;;;;;;;15.73;3.53;;;16.80;67.50;;;;;;5010829;28;20721;-69
2023/10/06 07:41:23;;;;;;;14.27;3.30;;;16.70;68.00;;;;;;5012803;28;20182;-70
2023/10/06 07:43:54;;;;;;;12.37;2.83;;;16.60;68.50;;;;;;5016990;28;20187;-73
2023/10/06 07:46:22;;;;;;;11.47;3.17;;;16.60;68.40;;;;;;5014472;28;20635;-73
2023/10/06 07:48:50;;;;;;;11.20;3.00;;;16.60;68.50;;;;;;5014957;28;20177;-72
2023/10/06 07:51:19;;;;;;;11.07;3.57;;;16.50;68.50;;;;;;5015734;28;20284;-71
2023/10/06 07:53:48;;;;;;;9.70;2.80;;;16.60;68.10;;;;;;5014443;28;20297;-73
2023/10/06 07:56:18;;;;;;;10.67;2.17;;;16.50;68.20;;;;;;5010830;28;20192;-73
2023/10/06 07:58:52;;;;;;;17.80;2.97;;;16.60;68.20;;;;;;5013014;28;20204;-74
2023/10/06 08:01:20;;;;;;;22.33;3.03;;;16.60;68.00;;;;;;5010834;28;20199;-73
2023/10/06 08:03:48;;;;;;;14.27;3.37;;;16.60;67.90;;;;;;5010859;28;20261;-75
2023/10/06 08:06:15;;;;;;;13.60;2.90;;;16.60;67.70;;;;;;5013281;28;20224;-72
2023/10/06 08:08:43;;;;;;;16.13;3.03;;;16.60;67.40;;;;;;5009717;28;20181;-73
2023/10/06 08:11:13;;;;;;;14.83;2.93;;;16.60;67.40;;;;;;5012924;28;20209;-73
2023/10/06 08:13:42;;;;;;;12.30;3.17;;;16.60;67.10;;;;;;5013010;28;20276;-73
2023/10/06 08:16:12;;;;;;;12.60;2.90;;;16.60;67.80;;;;;;5015967;28;20680;-73
2023/10/06 08:18:40;;;;;;;11.03;3.43;;;16.50;68.10;;;;;;5011514;28;20185;-73
2023/10/06 08:21:07;;;;;;;20.27;4.30;;;16.50;68.10;;;;;;5012094;28;20192;-73
2023/10/06 08:23:38;;;;;;;17.10;3.13;;;16.50;68.20;;;;;;5011913;28;20275;-71
2023/10/06 08:26:13;;;;;;;10.80;2.80;;;16.50;68.20;;;;;;5014162;28;21918;-74
2023/10/06 08:28:42;;;;;;;15.43;3.23;;;16.40;67.60;;;;;;5007434;28;20189;-74
2023/10/06 08:31:19;;;;;;;14.60;3.37;;;16.40;67.00;;;;;;5006165;28;20197;-71
2023/10/06 08:33:48;;;;;;;14.63;3.17;;;16.40;66.80;;;;;;5013288;28;20757;-71
2023/10/06 08:36:16;;;;;;;16.13;3.47;;;16.40;66.60;;;;;;5014038;28;20208;-73
2023/10/06 08:38:46;;;;;;;19.20;3.30;;;16.40;66.40;;;;;;5013130;28;20255;-73
2023/10/06 08:41:15;;;;;;;15.23;4.10;;;16.50;66.40;;;;;;5013806;28;20536;-73
2023/10/06 08:43:47;;;;;;;10.80;3.00;;;16.50;66.30;;;;;;5012577;28;20217;-73
2023/10/06 08:46:19;;;;;;;14.23;3.20;;;16.50;66.20;;;;;;5011978;28;20180;-74
2023/10/06 08:48:50;;;;;;;13.80;3.50;;;16.50;66.30;;;;;;5012268;28;20189;-72
2023/10/06 08:51:19;;;;;;;16.17;3.50;;;16.50;66.10;;;;;;5012159;28;20651;-72
2023/10/06 08:53:49;;;;;;;12.90;3.30;;;16.50;66.30;;;;;;5010958;28;20195;-76
2023/10/06 08:56:17;;;;;;;20.73;4.17;;;16.60;66.40;;;;;;5005765;28;20303;-70
2023/10/06 08:58:45;;;;;;;16.03;3.70;;;16.50;66.60;;;;;;5013367;28;20645;-70
2023/10/06 09:01:14;;;;;;;17.27;3.83;;;16.50;66.30;;;;;;5014309;28;20228;-70
2023/10/06 09:03:42;;;;;;;14.93;3.53;;;16.50;65.90;;;;;;5011135;28;20192;-73
2023/10/06 09:06:11;;;;;;;20.27;3.73;;;16.60;65.00;;;;;;5008912;28;20193;-69
2023/10/06 09:09:27;;;;;;;11.87;2.73;;;16.60;64.90;;;;;;5009466;28;20193;-73
2023/10/06 09:11:55;;;;;;;11.67;2.83;;;16.60;64.20;;;;;;5010298;28;20189;-69
2023/10/06 09:14:23;;;;;;;14.03;3.10;;;16.50;63.90;;;;;;5012781;28;20249;-73
2023/10/06 09:16:51;;;;;;;19.37;3.47;;;16.50;64.50;;;;;;5011114;28;20192;-72
2023/10/06 09:19:20;;;;;;;17.93;3.63;;;16.60;64.30;;;;;;5009744;28;20212;-74
2023/10/06 09:22:23;;;;;;;20.07;3.43;;;16.60;63.20;;;;;;5023880;28;20570;-74
2023/10/06 09:25:00;;;;;;;11.03;2.97;;;16.60;63.20;;;;;;4977145;28;20255;-71
2023/10/06 09:27:28;;;;;;;19.93;3.20;;;16.50;63.40;;;;;;5016044;28;20188;-72
2023/10/06 09:30:10;;;;;;;10.00;2.60;;;16.60;63.30;;;;;;5014239;28;20320;-72
2023/10/06 09:32:39;;;;;;;17.40;3.70;;;16.60;62.80;;;;;;5018046;28;20183;-72
2023/10/06 09:35:22;;;;;;;9.83;2.80;;;16.60;62.10;;;;;;5021044;28;20192;-72
2023/10/06 09:37:54;;;;;;;14.60;2.80;;;16.60;61.30;;;;;;5011822;28;20666;-69
2023/10/06 09:40:22;;;;;;;15.17;2.37;;;16.60;61.10;;;;;;5015018;28;20540;-71
2023/10/06 09:42:54;;;;;;;12.80;2.57;;;16.60;61.00;;;;;;5011350;28;20180;-71
2023/10/06 09:45:24;;;;;;;9.47;2.80;;;16.60;60.90;;;;;;5013204;28;20188;-69
2023/10/06 09:47:57;;;;;;;12.60;2.47;;;16.60;60.90;;;;;;5021291;28;20179;-73
2023/10/06 09:50:26;;;;;;;19.03;3.27;;;16.60;61.20;;;;;;5015442;28;20696;-70
2023/10/06 09:52:54;;;;;;;9.33;2.30;;;16.60;60.40;;;;;;5015396;28;20223;-70
2023/10/06 09:55:22;;;;;;;11.80;2.57;;;16.60;60.70;;;;;;4999179;28;20188;-70
2023/10/06 09:57:50;;;;;;;16.07;3.27;;;16.60;60.80;;;;;;5010440;28;20584;-71
2023/10/06 10:00:19;;;;;;;8.97;2.83;;;16.50;60.90;;;;;;5019891;28;20603;-71
2023/10/06 10:02:51;;;;;;;12.60;2.73;;;16.50;60.60;;;;;;5023555;28;20183;-75
2023/10/06 10:05:20;;;;;;;11.20;2.63;;;16.60;59.20;;;;;;5006138;28;20196;-73
2023/10/06 10:07:53;;;;;;;13.63;3.47;;;16.50;58.40;;;;;;5021329;28;20258;-70
2023/10/06 10:10:27;;;;;;;16.20;3.23;;;16.50;58.30;;;;;;5017903;28;20222;-73
2023/10/06 10:13:12;;;;;;;10.47;2.30;;;16.60;57.40;;;;;;5014659;28;20543;-69
2023/10/06 10:19:31;;;;;;;13.23;2.80;;;16.50;56.60;;;;;;4947759;28;20187;-79
2023/10/06 10:22:02;;;;;;;13.30;2.87;;;16.50;56.80;;;;;;4945747;28;20195;-79
2023/10/06 10:24:31;;;;;;;9.50;2.47;;;16.60;57.20;;;;;;5002694;28;20204;-77
2023/10/06 10:27:00;;;;;;;12.80;2.63;;;16.50;56.90;;;;;;5010130;28;20200;-77
2023/10/06 10:29:28;;;;;;;14.80;2.67;;;16.50;57.40;;;;;;5007591;28;20215;-77
2023/10/06 10:32:13;;;;;;;11.87;2.90;;;16.60;57.50;;;;;;5007035;28;20188;-78
2023/10/06 10:35:25;;;;;;;9.67;2.50;;;16.50;57.20;;;;;;5013661;28;20639;-78
2023/10/06 10:38:02;;;;;;;12.07;2.87;;;16.50;56.30;;;;;;5010957;28;20212;-78
2023/10/06 10:40:44;;;;;;;13.90;2.80;;;16.50;56.60;;;;;;5028860;28;20177;-77
2023/10/06 10:43:16;;;;;;;17.50;3.27;;;16.40;56.70;;;;;;5014181;28;20620;-78
2023/10/06 10:45:50;;;;;;;12.70;3.00;;;16.50;57.30;;;;;;5013990;28;20200;-76
2023/10/06 10:48:55;;;;;;;11.70;3.10;;;16.50;57.50;;;;;;5016993;28;20242;-78
2023/10/06 10:51:23;;;;;;;12.47;2.70;;;16.60;58.10;;;;;;5011133;28;20272;-79
2023/10/06 10:53:53;;;;;;;8.70;2.60;;;16.60;57.30;;;;;;5014272;28;20180;-80
2023/10/06 10:56:34;;;;;;;9.80;2.57;;;16.50;56.80;;;;;;5015454;28;20231;-80
2023/10/06 10:59:03;;;;;;;12.20;2.63;;;16.50;56.70;;;;;;5014197;28;20271;-79
2023/10/06 11:01:51;;;;;;;15.23;3.10;;;16.50;57.00;;;;;;5016462;28;20264;-78
2023/10/06 11:04:37;;;;;;;12.53;2.80;;;16.50;57.40;;;;;;5014743;28;20238;-77
2023/10/06 11:07:18;;;;;;;13.30;2.60;;;16.50;57.30;;;;;;5013920;28;20188;-77
2023/10/06 11:09:48;;;;;;;11.10;2.80;;;16.30;58.50;;;;;;5013740;28;20303;-77
2023/10/06 11:12:26;;;;;;;9.17;2.53;;;16.30;59.60;;;;;;5014289;28;20228;-76
2023/10/06 11:17:58;;;;;;;10.10;2.57;;;16.20;60.30;;;;;;5011129;28;20590;-78
2023/10/06 11:20:32;;;;;;;12.80;3.73;;;16.10;60.80;;;;;;5014615;28;20184;-76
2023/10/06 11:23:01;;;;;;;14.63;3.33;;;16.10;61.70;;;;;;5016740;28;20173;-79
2023/10/06 11:25:32;;;;;;;14.80;2.73;;;16.00;63.80;;;;;;5014836;28;20254;-77
2023/10/06 11:28:08;;;;;;;10.13;2.90;;;15.90;64.00;;;;;;5013583;28;20183;-80
2023/10/06 11:30:38;;;;;;;15.00;3.63;;;15.80;64.80;;;;;;5015046;28;20247;-79
2023/10/06 11:33:11;;;;;;;10.97;2.73;;;15.80;66.00;;;;;;5015157;28;20212;-78
2023/10/06 11:35:41;;;;;;;8.83;2.67;;;15.70;68.20;;;;;;5015357;28;20206;-80
2023/10/06 11:38:12;;;;;;;12.57;3.00;;;15.50;68.90;;;;;;5021636;28;20184;-78
2023/10/06 11:40:40;;;;;;;14.17;3.20;;;15.50;69.30;;;;;;5017101;28;20201;-79
2023/10/06 11:43:17;;;;;;;13.37;3.00;;;15.40;68.60;;;;;;5014934;28;20181;-81
2023/10/06 11:45:46;;;;;;;13.60;2.50;;;15.30;68.00;;;;;;5018832;28;20177;-78
2023/10/06 11:48:33;;;;;;;12.17;2.50;;;15.30;67.80;;;;;;5026452;28;20263;-79
2023/10/06 11:51:08;;;;;;;10.80;3.03;;;15.30;68.00;;;;;;5004943;28;20239;-80
2023/10/06 11:53:36;;;;;;;14.90;2.87;;;15.30;67.80;;;;;;5025211;28;20642;-80
2023/10/06 11:56:13;;;;;;;11.67;2.90;;;15.30;67.90;;;;;;5015336;28;20241;-80
2023/10/06 11:58:42;;;;;;;14.10;3.47;;;15.30;68.10;;;;;;5014940;28;20260;-78
2023/10/06 12:01:33;;;;;;;13.67;3.17;;;15.30;68.60;;;;;;5014483;28;20179;-80
2023/10/06 12:04:01;;;;;;;17.07;3.00;;;15.30;68.60;;;;;;5009833;28;20189;-78
2023/10/06 12:06:41;;;;;;;19.87;3.43;;;15.30;68.50;;;;;;5014758;28;20184;-81
2023/10/06 12:09:24;;;;;;;16.87;3.03;;;15.30;68.50;;;;;;5021897;28;20253;-80
2023/10/06 12:11:57;;;;;;;17.40;3.73;;;15.30;69.30;;;;;;5014251;28;20182;-79
2023/10/06 12:14:25;;;;;;;14.27;2.83;;;15.30;69.90;;;;;;5015190;28;20193;-77
2023/10/06 12:16:54;;;;;;;14.23;3.73;;;15.20;70.50;;;;;;5012971;28;20178;-81
2023/10/06 12:19:23;;;;;;;12.73;2.90;;;15.20;70.70;;;;;;5015233;28;21350;-80
2023/10/06 12:21:55;;;;;;;13.80;3.27;;;15.20;70.90;;;;;;5024297;28;20233;-77
2023/10/06 12:24:23;;;;;;;12.80;3.03;;;15.20;71.40;;;;;;5016311;28;20648;-82
2023/10/06 12:26:51;;;;;;;17.43;3.17;;;15.20;71.80;;;;;;5030837;28;20233;-79
2023/10/06 12:29:20;;;;;;;18.27;3.50;;;15.10;72.30;;;;;;5015369;28;20570;-77
2023/10/06 12:31:52;;;;;;;17.37;3.37;;;15.00;72.20;;;;;;5011538;28;20189;-81
2023/10/06 12:34:20;;;;;;;11.27;2.30;;;15.00;72.50;;;;;;5013965;28;20184;-80
2023/10/06 12:36:48;;;;;;;11.07;2.60;;;15.00;72.10;;;;;;5013802;28;20651;-80
2023/10/06 12:39:21;;;;;;;14.47;2.60;;;15.00;72.20;;;;;;5014719;28;20224;-81
2023/10/06 12:41:49;;;;;;;16.13;3.87;;;15.00;71.90;;;;;;5025806;28;20185;-81
2023/10/06 12:44:17;;;;;;;13.93;2.70;;;15.00;71.80;;;;;;5013880;28;20308;-80
2023/10/06 12:46:45;;;;;;;15.53;3.50;;;15.10;71.40;;;;;;5013604;28;20215;-79
2023/10/06 12:49:18;;;;;;;17.07;3.00;;;15.10;71.50;;;;;;5013623;28;20177;-78
2023/10/06 12:51:46;;;;;;;17.67;3.17;;;15.10;71.50;;;;;;5014214;28;20589;-79
2023/10/06 12:54:14;;;;;;;11.97;2.97;;;15.10;71.20;;;;;;5011636;28;20192;-78
2023/10/06 12:56:48;;;;;;;12.00;2.67;;;15.10;70.40;;;;;;5012716;28;20238;-80
2023/10/06 12:59:25;;;;;;;13.20;2.83;;;15.20;69.10;;;;;;5014772;28;20757;-78
2023/10/06 13:01:57;;;;;;;15.03;2.90;;;15.20;68.50;;;;;;5018927;28;20184;-80
2023/10/06 13:04:25;;;;;;;12.30;2.40;;;15.20;68.00;;;;;;5014298;28;20180;-80
2023/10/06 13:06:53;;;;;;;10.87;2.30;;;15.20;67.40;;;;;;5012071;28;20229;-80
2023/10/06 13:09:21;;;;;;;11.87;2.47;;;15.20;67.00;;;;;;5020959;28;20212;-81
2023/10/06 13:11:49;;;;;;;9.57;2.00;;;15.20;66.90;;;;;;5014009;28;20182;-81
2023/10/06 13:14:20;;;;;;;10.53;2.73;;;15.20;66.70;;;;;;5019735;28;20196;-78
2023/10/06 13:16:48;;;;;;;10.57;2.30;;;15.20;66.30;;;;;;5014918;28;20711;-81
2023/10/06 13:19:16;;;;;;;10.30;2.50;;;15.20;66.00;;;;;;5015385;28;20181;-78
2023/10/06 13:21:44;;;;;;;14.53;2.50;;;15.20;66.50;;;;;;5017846;28;20596;-81